NGN7502 EDDG-LPPR
Flight info
| Callsign | NGN7502 |
|---|---|
| Flight time | 2h 39m |
| Altitude | 34000 |
| Route | DOMEG1W DOMEG N853 QATJA Y841 NVO/N0445F360 Y841 KENUM DCT GESLO/N0443F370 N852 DIK/N0445F360 UN857 TOLVU/N0446F370 DCT RAPOR DCT ESTOC UT300 PON UN872 ERIGA DCT FUJTI DCT ATLEN DCT INSID T326 ASPOR |
| Aircraft | A320/M-SDE3FGHIRWY/LB1 |
Departure
| Time | 2026-05-04 08:19 |
|---|---|
| Airport | Münster Osnabrück Airport (EDDG) |
Arrival
| Time | 2026-05-04 10:58 |
|---|---|
| Airport | Francisco de Sá Carneiro Airport (LPPR) |
| Time | Latitude | Longitude | Altitude | Speed | Heading |
|---|---|---|---|---|---|
| 2026-05-04 07:55 | 52.13269 | 7.69212 | 164 ft | 0 kts | 161° |
| 2026-05-04 08:16 | 52.13452 | 7.69256 | 163 ft | 15 kts | 54° |
| 2026-05-04 08:16 | 52.13487 | 7.69417 | 164 ft | 16 kts | 71° |
| 2026-05-04 08:16 | 52.13527 | 7.69600 | 164 ft | 18 kts | 70° |
| 2026-05-04 08:17 | 52.13568 | 7.69800 | 164 ft | 20 kts | 71° |
| 2026-05-04 08:17 | 52.13627 | 7.70004 | 161 ft | 20 kts | 39° |
| 2026-05-04 08:17 | 52.13756 | 7.69999 | 164 ft | 18 kts | 335° |
| 2026-05-04 08:17 | 52.13770 | 7.69929 | 165 ft | 0 kts | 252° |
| 2026-05-04 08:19 | 52.12730 | 7.65009 | 1100 ft | 155 kts | 251° |
| 2026-05-04 08:19 | 52.12374 | 7.63331 | 1707 ft | 158 kts | 250° |
| 2026-05-04 08:20 | 52.11990 | 7.61613 | 2137 ft | 169 kts | 249° |
| 2026-05-04 08:20 | 52.11568 | 7.59695 | 2396 ft | 191 kts | 251° |
| 2026-05-04 08:20 | 52.11111 | 7.57526 | 2680 ft | 213 kts | 251° |
| 2026-05-04 08:20 | 52.10595 | 7.55107 | 2979 ft | 239 kts | 248° |
| 2026-05-04 08:21 | 52.09549 | 7.52936 | 3521 ft | 255 kts | 212° |
| 2026-05-04 08:21 | 52.07845 | 7.52035 | 4330 ft | 262 kts | 191° |
| 2026-05-04 08:21 | 52.06026 | 7.51642 | 5229 ft | 266 kts | 187° |
| 2026-05-04 08:21 | 52.05047 | 7.51491 | 5718 ft | 268 kts | 187° |
| 2026-05-04 08:22 | 52.03179 | 7.51240 | 6690 ft | 271 kts | 187° |
| 2026-05-04 08:22 | 52.01289 | 7.50993 | 7567 ft | 274 kts | 186° |
| 2026-05-04 08:24 | 51.88787 | 7.39781 | 11529 ft | 338 kts | 214° |
| 2026-05-04 08:24 | 51.86789 | 7.37752 | 12223 ft | 340 kts | 214° |
| 2026-05-04 08:24 | 51.84780 | 7.35714 | 12932 ft | 342 kts | 214° |
| 2026-05-04 08:24 | 51.82760 | 7.33662 | 13650 ft | 344 kts | 214° |
| 2026-05-04 08:25 | 51.80728 | 7.31591 | 14289 ft | 346 kts | 214° |
| 2026-05-04 08:25 | 51.78679 | 7.29504 | 14877 ft | 349 kts | 214° |
| 2026-05-04 08:25 | 51.76615 | 7.27400 | 15447 ft | 352 kts | 214° |
| 2026-05-04 08:25 | 51.74534 | 7.25279 | 15995 ft | 356 kts | 214° |
| 2026-05-04 08:26 | 51.72430 | 7.23138 | 16560 ft | 359 kts | 214° |
| 2026-05-04 08:27 | 51.57182 | 7.07693 | 20665 ft | 376 kts | 213° |
| 2026-05-04 08:28 | 51.54958 | 7.05459 | 21247 ft | 377 kts | 213° |
| 2026-05-04 08:28 | 51.52725 | 7.03218 | 21807 ft | 378 kts | 213° |
| 2026-05-04 08:28 | 51.50493 | 7.00976 | 22335 ft | 379 kts | 213° |
| 2026-05-04 08:28 | 51.48259 | 6.98729 | 22872 ft | 380 kts | 213° |
| 2026-05-04 08:29 | 51.46013 | 6.96476 | 23385 ft | 381 kts | 213° |
| 2026-05-04 08:29 | 51.43761 | 6.94220 | 23827 ft | 382 kts | 213° |
| 2026-05-04 08:29 | 51.41500 | 6.91955 | 24214 ft | 384 kts | 213° |
| 2026-05-04 08:31 | 51.25301 | 6.75833 | 26696 ft | 399 kts | 213° |
| 2026-05-04 08:33 | 51.08029 | 6.60534 | 29376 ft | 406 kts | 211° |
| 2026-05-04 08:33 | 51.05556 | 6.58368 | 29846 ft | 405 kts | 212° |
| 2026-05-04 08:35 | 50.88457 | 6.43412 | 32774 ft | 398 kts | 211° |
| 2026-05-04 08:35 | 50.86034 | 6.41302 | 33174 ft | 397 kts | 211° |
| 2026-05-04 08:35 | 50.83613 | 6.39195 | 33582 ft | 397 kts | 211° |
| 2026-05-04 08:35 | 50.81197 | 6.37097 | 33929 ft | 397 kts | 211° |
| 2026-05-04 08:37 | 50.66338 | 6.24264 | 33996 ft | 408 kts | 211° |
| 2026-05-04 08:37 | 50.63844 | 6.22125 | 33991 ft | 408 kts | 210° |
| 2026-05-04 08:38 | 50.58856 | 6.17852 | 33998 ft | 408 kts | 211° |
| 2026-05-04 08:38 | 50.54678 | 6.14269 | 33994 ft | 408 kts | 211° |
| 2026-05-04 08:40 | 50.34735 | 5.97304 | 34018 ft | 407 kts | 211° |
| 2026-05-04 08:41 | 50.29794 | 5.93119 | 34024 ft | 406 kts | 211° |
| 2026-05-04 08:41 | 50.24820 | 5.88916 | 34017 ft | 406 kts | 210° |
| 2026-05-04 08:42 | 50.19847 | 5.84735 | 34022 ft | 406 kts | 210° |
| 2026-05-04 08:42 | 50.14874 | 5.80555 | 34025 ft | 406 kts | 210° |
| 2026-05-04 08:43 | 50.09903 | 5.76388 | 34034 ft | 405 kts | 210° |
| 2026-05-04 08:43 | 50.04935 | 5.72238 | 34035 ft | 405 kts | 210° |
| 2026-05-04 08:43 | 50.02555 | 5.69936 | 34035 ft | 402 kts | 221° |
| 2026-05-04 08:44 | 50.00667 | 5.66758 | 34040 ft | 401 kts | 236° |
| 2026-05-04 08:46 | 49.92340 | 5.34471 | 34038 ft | 402 kts | 246° |
| 2026-05-04 08:46 | 49.90299 | 5.26399 | 34039 ft | 402 kts | 246° |
| 2026-05-04 08:47 | 49.88253 | 5.18339 | 34037 ft | 401 kts | 245° |
| 2026-05-04 08:47 | 49.86206 | 5.10308 | 34039 ft | 400 kts | 245° |
| 2026-05-04 08:48 | 49.84159 | 5.02291 | 34036 ft | 400 kts | 245° |
| 2026-05-04 08:48 | 49.82112 | 4.94281 | 34034 ft | 400 kts | 245° |
| 2026-05-04 08:49 | 49.80059 | 4.86289 | 34032 ft | 399 kts | 245° |
| 2026-05-04 08:50 | 49.72833 | 4.58438 | 34030 ft | 398 kts | 245° |
| 2026-05-04 08:51 | 49.70763 | 4.50511 | 34069 ft | 396 kts | 244° |
| 2026-05-04 08:51 | 49.69729 | 4.46570 | 34303 ft | 397 kts | 244° |
| 2026-05-04 08:51 | 49.68689 | 4.42609 | 34547 ft | 398 kts | 244° |
| 2026-05-04 08:52 | 49.67647 | 4.38640 | 34781 ft | 399 kts | 244° |
| 2026-05-04 08:52 | 49.66602 | 4.34658 | 34962 ft | 401 kts | 244° |
| 2026-05-04 08:52 | 49.64497 | 4.26670 | 35007 ft | 402 kts | 244° |
| 2026-05-04 08:54 | 49.56001 | 3.94728 | 35000 ft | 403 kts | 244° |
| 2026-05-04 08:55 | 49.53854 | 3.86751 | 34998 ft | 404 kts | 244° |
| 2026-05-04 08:55 | 49.51698 | 3.78765 | 34995 ft | 404 kts | 244° |
| 2026-05-04 09:01 | 49.28621 | 2.94743 | 35000 ft | 409 kts | 243° |
| 2026-05-04 09:01 | 49.26374 | 2.86733 | 35001 ft | 410 kts | 243° |
| 2026-05-04 09:02 | 49.24119 | 2.78709 | 35004 ft | 411 kts | 243° |
| 2026-05-04 09:02 | 49.21856 | 2.70677 | 35003 ft | 411 kts | 242° |
| 2026-05-04 09:03 | 49.19578 | 2.62642 | 35006 ft | 412 kts | 242° |
| 2026-05-04 09:03 | 49.17290 | 2.54612 | 35010 ft | 412 kts | 242° |
| 2026-05-04 09:04 | 49.14993 | 2.46574 | 35010 ft | 413 kts | 242° |
| 2026-05-04 09:04 | 49.12940 | 2.38359 | 35008 ft | 419 kts | 252° |
| 2026-05-04 09:05 | 49.12039 | 2.29496 | 35007 ft | 424 kts | 257° |
| 2026-05-04 09:05 | 49.11218 | 2.20578 | 35012 ft | 424 kts | 257° |
| 2026-05-04 09:06 | 49.10376 | 2.11655 | 35012 ft | 425 kts | 256° |
| 2026-05-04 09:07 | 49.03320 | 1.82696 | 35011 ft | 417 kts | 241° |
| 2026-05-04 09:08 | 49.02115 | 1.78681 | 35007 ft | 417 kts | 241° |
| 2026-05-04 09:08 | 48.99691 | 1.70652 | 35008 ft | 417 kts | 241° |
| 2026-05-04 09:09 | 48.97252 | 1.62627 | 35006 ft | 418 kts | 241° |
| 2026-05-04 09:09 | 48.94800 | 1.54609 | 35006 ft | 418 kts | 241° |
| 2026-05-04 09:10 | 48.92346 | 1.46582 | 35010 ft | 418 kts | 241° |
| 2026-05-04 09:10 | 48.89884 | 1.38562 | 35008 ft | 419 kts | 240° |
| 2026-05-04 09:11 | 48.87425 | 1.30585 | 35005 ft | 420 kts | 240° |
| 2026-05-04 09:11 | 48.84935 | 1.22548 | 35003 ft | 421 kts | 240° |
| 2026-05-04 09:12 | 48.82442 | 1.14507 | 35001 ft | 421 kts | 240° |
| 2026-05-04 09:14 | 48.71947 | 0.82655 | 34984 ft | 422 kts | 235° |
| 2026-05-04 09:14 | 48.68878 | 0.75086 | 34984 ft | 422 kts | 235° |
| 2026-05-04 09:15 | 48.65800 | 0.67501 | 34986 ft | 423 kts | 235° |
| 2026-05-04 09:15 | 48.62715 | 0.59921 | 34985 ft | 423 kts | 235° |
| 2026-05-04 09:17 | 48.48752 | 0.25867 | 34999 ft | 424 kts | 235° |
| 2026-05-04 09:18 | 48.45636 | 0.18330 | 34996 ft | 423 kts | 235° |
| 2026-05-04 09:18 | 48.43023 | 0.12028 | 35000 ft | 423 kts | 235° |
| 2026-05-04 09:19 | 48.39904 | 0.04518 | 34999 ft | 423 kts | 235° |
| 2026-05-04 09:19 | 48.36780 | -0.02970 | 35000 ft | 422 kts | 235° |
| 2026-05-04 09:20 | 48.33474 | -0.10239 | 35005 ft | 421 kts | 231° |
| 2026-05-04 09:20 | 48.29930 | -0.17221 | 34999 ft | 420 kts | 230° |
| 2026-05-04 09:21 | 48.26367 | -0.24181 | 34994 ft | 421 kts | 230° |
| 2026-05-04 09:21 | 48.22822 | -0.31174 | 35001 ft | 421 kts | 230° |
| 2026-05-04 09:22 | 48.19260 | -0.38162 | 34988 ft | 422 kts | 230° |
| 2026-05-04 09:22 | 48.15690 | -0.45138 | 34982 ft | 422 kts | 230° |
| 2026-05-04 09:23 | 48.12108 | -0.52109 | 34989 ft | 422 kts | 230° |
| 2026-05-04 09:23 | 48.08519 | -0.59080 | 34984 ft | 423 kts | 230° |
| 2026-05-04 09:25 | 47.94126 | -0.86913 | 34994 ft | 423 kts | 230° |
| 2026-05-04 09:26 | 47.90509 | -0.93836 | 34997 ft | 423 kts | 230° |
| 2026-05-04 09:26 | 47.86892 | -1.00750 | 35001 ft | 423 kts | 230° |
| 2026-05-04 09:27 | 47.83274 | -1.07659 | 35001 ft | 423 kts | 230° |
| 2026-05-04 09:27 | 47.79649 | -1.14555 | 35005 ft | 423 kts | 230° |
| 2026-05-04 09:28 | 47.76019 | -1.21447 | 35001 ft | 423 kts | 230° |
| 2026-05-04 09:28 | 47.72386 | -1.28335 | 35001 ft | 423 kts | 230° |
| 2026-05-04 09:29 | 47.68753 | -1.35220 | 35001 ft | 424 kts | 230° |
| 2026-05-04 09:29 | 47.65107 | -1.42096 | 35000 ft | 424 kts | 229° |
| 2026-05-04 09:30 | 47.61448 | -1.48954 | 35003 ft | 424 kts | 229° |
| 2026-05-04 09:30 | 47.57710 | -1.55720 | 35005 ft | 424 kts | 227° |
| 2026-05-04 09:31 | 47.53757 | -1.62189 | 35004 ft | 424 kts | 225° |
| 2026-05-04 09:31 | 47.49753 | -1.68588 | 35008 ft | 424 kts | 225° |
| 2026-05-04 09:32 | 47.45782 | -1.75044 | 35010 ft | 424 kts | 226° |
| 2026-05-04 09:34 | 47.31118 | -1.96255 | 35017 ft | 422 kts | 210° |
| 2026-05-04 09:34 | 47.28610 | -1.98492 | 35016 ft | 422 kts | 210° |
| 2026-05-04 09:34 | 47.23595 | -2.02986 | 35015 ft | 422 kts | 211° |
| 2026-05-04 09:35 | 47.18576 | -2.07480 | 35018 ft | 422 kts | 211° |
| 2026-05-04 09:35 | 47.13545 | -2.11956 | 35019 ft | 422 kts | 210° |
| 2026-05-04 09:37 | 46.93425 | -2.29761 | 35022 ft | 422 kts | 210° |
| 2026-05-04 09:38 | 46.88395 | -2.34197 | 35018 ft | 422 kts | 210° |
| 2026-05-04 09:38 | 46.83362 | -2.38619 | 35016 ft | 422 kts | 210° |
| 2026-05-04 09:39 | 46.78328 | -2.43035 | 35018 ft | 422 kts | 210° |
| 2026-05-04 09:39 | 46.73295 | -2.47449 | 35018 ft | 422 kts | 210° |
| 2026-05-04 09:40 | 46.68260 | -2.51856 | 35019 ft | 422 kts | 210° |
| 2026-05-04 09:40 | 46.63222 | -2.56243 | 35018 ft | 422 kts | 210° |
| 2026-05-04 09:42 | 46.43084 | -2.73684 | 35023 ft | 422 kts | 210° |
| 2026-05-04 09:43 | 46.38040 | -2.78040 | 35022 ft | 422 kts | 210° |
| 2026-05-04 09:43 | 46.32997 | -2.82393 | 35023 ft | 422 kts | 210° |
| 2026-05-04 09:44 | 46.27944 | -2.86737 | 35020 ft | 422 kts | 210° |
| 2026-05-04 09:46 | 46.11764 | -3.06005 | 35023 ft | 424 kts | 219° |
| 2026-05-04 09:46 | 46.07253 | -3.11476 | 35027 ft | 424 kts | 219° |
| 2026-05-04 09:47 | 46.02741 | -3.16959 | 35027 ft | 424 kts | 219° |
| 2026-05-04 09:49 | 45.84630 | -3.38795 | 35027 ft | 426 kts | 218° |
| 2026-05-04 09:51 | 45.68690 | -3.57845 | 35025 ft | 427 kts | 218° |
| 2026-05-04 09:51 | 45.64120 | -3.63288 | 35022 ft | 428 kts | 219° |
| 2026-05-04 09:52 | 45.59539 | -3.68733 | 35027 ft | 428 kts | 219° |
| 2026-05-04 09:52 | 45.54953 | -3.74170 | 35030 ft | 429 kts | 218° |
| 2026-05-04 09:53 | 45.50351 | -3.79613 | 35032 ft | 429 kts | 219° |
| 2026-05-04 09:53 | 45.45740 | -3.85045 | 35034 ft | 430 kts | 219° |
| 2026-05-04 09:54 | 45.41125 | -3.90462 | 35039 ft | 430 kts | 219° |
| 2026-05-04 09:54 | 45.36505 | -3.95889 | 35039 ft | 431 kts | 219° |
| 2026-05-04 09:55 | 45.31885 | -4.01313 | 35040 ft | 431 kts | 219° |
| 2026-05-04 09:55 | 45.27262 | -4.06728 | 35042 ft | 431 kts | 219° |
| 2026-05-04 09:56 | 45.22634 | -4.12131 | 35045 ft | 431 kts | 219° |
| 2026-05-04 09:56 | 45.17997 | -4.17515 | 35045 ft | 431 kts | 219° |
| 2026-05-04 09:57 | 45.13360 | -4.22892 | 35049 ft | 431 kts | 219° |
| 2026-05-04 09:57 | 45.09508 | -4.27358 | 35047 ft | 430 kts | 219° |
| 2026-05-04 09:58 | 45.04877 | -4.32725 | 35046 ft | 430 kts | 219° |
| 2026-05-04 09:58 | 45.00241 | -4.38083 | 35046 ft | 430 kts | 219° |
| 2026-05-04 10:00 | 44.81652 | -4.59408 | 35050 ft | 431 kts | 219° |
| 2026-05-04 10:04 | 44.49042 | -4.96356 | 35038 ft | 429 kts | 217° |
| 2026-05-04 10:04 | 44.44209 | -5.01273 | 35039 ft | 429 kts | 215° |
| 2026-05-04 10:05 | 44.39312 | -5.06054 | 35043 ft | 429 kts | 215° |
| 2026-05-04 10:05 | 44.34428 | -5.10881 | 35053 ft | 430 kts | 216° |
| 2026-05-04 10:06 | 44.29576 | -5.15756 | 35053 ft | 430 kts | 216° |
| 2026-05-04 10:06 | 44.24720 | -5.20628 | 35058 ft | 430 kts | 216° |
| 2026-05-04 10:08 | 44.07692 | -5.37539 | 35065 ft | 429 kts | 216° |
| 2026-05-04 10:08 | 44.02832 | -5.42356 | 35070 ft | 429 kts | 216° |
| 2026-05-04 10:09 | 43.97969 | -5.47158 | 35070 ft | 429 kts | 216° |
| 2026-05-04 10:09 | 43.93104 | -5.51945 | 35075 ft | 428 kts | 216° |
| 2026-05-04 10:10 | 43.88238 | -5.56721 | 35069 ft | 428 kts | 216° |
| 2026-05-04 10:10 | 43.83373 | -5.61484 | 35072 ft | 428 kts | 216° |
| 2026-05-04 10:11 | 43.78512 | -5.66245 | 35071 ft | 428 kts | 216° |
| 2026-05-04 10:11 | 43.73650 | -5.70998 | 35072 ft | 427 kts | 216° |
| 2026-05-04 10:12 | 43.68794 | -5.75739 | 35070 ft | 427 kts | 216° |
| 2026-05-04 10:12 | 43.63937 | -5.80463 | 35072 ft | 427 kts | 216° |
| 2026-05-04 10:13 | 43.59077 | -5.85170 | 35069 ft | 427 kts | 216° |
| 2026-05-04 10:13 | 43.54220 | -5.89873 | 35074 ft | 426 kts | 216° |
| 2026-05-04 10:14 | 43.49371 | -5.94569 | 35069 ft | 426 kts | 216° |
| 2026-05-04 10:16 | 43.29969 | -6.13253 | 35059 ft | 425 kts | 216° |
| 2026-05-04 10:16 | 43.25120 | -6.17893 | 35063 ft | 425 kts | 216° |
| 2026-05-04 10:17 | 43.20264 | -6.22521 | 35055 ft | 425 kts | 216° |
| 2026-05-04 10:19 | 43.00854 | -6.40983 | 35052 ft | 424 kts | 216° |
| 2026-05-04 10:19 | 42.96001 | -6.45572 | 35057 ft | 424 kts | 216° |
| 2026-05-04 10:20 | 42.91145 | -6.50151 | 35056 ft | 424 kts | 216° |
| 2026-05-04 10:20 | 42.86294 | -6.54723 | 35055 ft | 424 kts | 217° |
| 2026-05-04 10:21 | 42.81450 | -6.59293 | 35056 ft | 423 kts | 217° |
| 2026-05-04 10:21 | 42.76601 | -6.63850 | 35061 ft | 423 kts | 217° |
| 2026-05-04 10:22 | 42.69697 | -6.71211 | 35073 ft | 419 kts | 230° |
| 2026-05-04 10:23 | 42.65896 | -6.77224 | 35064 ft | 419 kts | 230° |
| 2026-05-04 10:25 | 42.50707 | -7.01222 | 35076 ft | 419 kts | 230° |
| 2026-05-04 10:25 | 42.46906 | -7.07203 | 35077 ft | 419 kts | 230° |
| 2026-05-04 10:26 | 42.43101 | -7.13167 | 35075 ft | 418 kts | 230° |
| 2026-05-04 10:26 | 42.39293 | -7.19122 | 35084 ft | 418 kts | 230° |
| 2026-05-04 10:27 | 42.35486 | -7.25071 | 35082 ft | 418 kts | 231° |
| 2026-05-04 10:27 | 42.31680 | -7.31005 | 35079 ft | 418 kts | 230° |
| 2026-05-04 10:28 | 42.27867 | -7.36934 | 35080 ft | 418 kts | 231° |
| 2026-05-04 10:28 | 42.24057 | -7.42853 | 35084 ft | 417 kts | 231° |
| 2026-05-04 10:29 | 42.20252 | -7.48762 | 35080 ft | 417 kts | 231° |
| 2026-05-04 10:29 | 42.16436 | -7.54654 | 35079 ft | 417 kts | 230° |
| 2026-05-04 10:30 | 42.12619 | -7.60535 | 35082 ft | 417 kts | 230° |
| 2026-05-04 10:30 | 42.08807 | -7.66411 | 35083 ft | 416 kts | 231° |
| 2026-05-04 10:31 | 42.04992 | -7.72272 | 35082 ft | 416 kts | 231° |
| 2026-05-04 10:32 | 41.91645 | -7.92688 | 35078 ft | 415 kts | 231° |
| 2026-05-04 10:33 | 41.87836 | -7.98496 | 35082 ft | 414 kts | 231° |
| 2026-05-04 10:33 | 41.84024 | -8.04293 | 35085 ft | 414 kts | 231° |
| 2026-05-04 10:34 | 41.80607 | -8.10424 | 35023 ft | 408 kts | 243° |
| 2026-05-04 10:34 | 41.79288 | -8.13782 | 34456 ft | 407 kts | 243° |
| 2026-05-04 10:34 | 41.77981 | -8.17136 | 33811 ft | 406 kts | 243° |
| 2026-05-04 10:35 | 41.76681 | -8.20491 | 33065 ft | 406 kts | 243° |
| 2026-05-04 10:35 | 41.75821 | -8.22709 | 32548 ft | 406 kts | 243° |
| 2026-05-04 10:35 | 41.74514 | -8.26072 | 31755 ft | 407 kts | 243° |
| 2026-05-04 10:35 | 41.73202 | -8.29436 | 30940 ft | 408 kts | 243° |
| 2026-05-04 10:36 | 41.71880 | -8.32809 | 30103 ft | 410 kts | 243° |
| 2026-05-04 10:36 | 41.70553 | -8.36187 | 29251 ft | 409 kts | 243° |
| 2026-05-04 10:36 | 41.69234 | -8.39538 | 28536 ft | 405 kts | 243° |
| 2026-05-04 10:36 | 41.67925 | -8.42852 | 27859 ft | 401 kts | 243° |
| 2026-05-04 10:37 | 41.66629 | -8.46131 | 27187 ft | 397 kts | 243° |
| 2026-05-04 10:37 | 41.65348 | -8.49377 | 26538 ft | 393 kts | 243° |
| 2026-05-04 10:37 | 41.64075 | -8.52596 | 25903 ft | 390 kts | 243° |
| 2026-05-04 10:37 | 41.62816 | -8.55788 | 25277 ft | 387 kts | 243° |
| 2026-05-04 10:39 | 41.55433 | -8.74439 | 21637 ft | 371 kts | 243° |
| 2026-05-04 10:39 | 41.54223 | -8.77471 | 21091 ft | 369 kts | 243° |
| 2026-05-04 10:39 | 41.53019 | -8.80481 | 20579 ft | 366 kts | 242° |
| 2026-05-04 10:40 | 41.51558 | -8.83256 | 20079 ft | 366 kts | 228° |
| 2026-05-04 10:40 | 41.49567 | -8.85366 | 19568 ft | 369 kts | 212° |
| 2026-05-04 10:40 | 41.47174 | -8.86616 | 19055 ft | 373 kts | 196° |
| 2026-05-04 10:40 | 41.44582 | -8.86866 | 18545 ft | 378 kts | 179° |
| 2026-05-04 10:41 | 41.41984 | -8.86258 | 17958 ft | 379 kts | 172° |
| 2026-05-04 10:41 | 41.39405 | -8.85556 | 17372 ft | 377 kts | 172° |
| 2026-05-04 10:41 | 41.36847 | -8.84864 | 16803 ft | 374 kts | 172° |
| 2026-05-04 10:41 | 41.34307 | -8.84182 | 16237 ft | 371 kts | 172° |
| 2026-05-04 10:42 | 41.31786 | -8.83510 | 15670 ft | 368 kts | 171° |
| 2026-05-04 10:42 | 41.29285 | -8.82843 | 15120 ft | 365 kts | 171° |
| 2026-05-04 10:42 | 41.26805 | -8.82184 | 14584 ft | 362 kts | 171° |
| 2026-05-04 10:42 | 41.24336 | -8.81529 | 14039 ft | 360 kts | 171° |
| 2026-05-04 10:43 | 41.21890 | -8.80875 | 13461 ft | 357 kts | 170° |
| 2026-05-04 10:44 | 41.06820 | -8.76865 | 11868 ft | 282 kts | 171° |
| 2026-05-04 10:45 | 41.04961 | -8.76369 | 11737 ft | 263 kts | 171° |
| 2026-05-04 10:45 | 41.03214 | -8.75904 | 11547 ft | 254 kts | 171° |
| 2026-05-04 10:45 | 41.01482 | -8.75447 | 11262 ft | 253 kts | 171° |
| 2026-05-04 10:45 | 40.99746 | -8.74979 | 10865 ft | 258 kts | 168° |
| 2026-05-04 10:46 | 40.98848 | -8.74541 | 10588 ft | 265 kts | 152° |
| 2026-05-04 10:46 | 40.97507 | -8.72823 | 10043 ft | 277 kts | 119° |
| 2026-05-04 10:46 | 40.97051 | -8.70385 | 9461 ft | 276 kts | 86° |
| 2026-05-04 10:46 | 40.97361 | -8.67879 | 8881 ft | 276 kts | 78° |
| 2026-05-04 10:47 | 40.97742 | -8.65393 | 8311 ft | 275 kts | 77° |
| 2026-05-04 10:47 | 40.98507 | -8.63122 | 7750 ft | 270 kts | 46° |
| 2026-05-04 10:47 | 41.00051 | -8.61831 | 7171 ft | 263 kts | 10° |
| 2026-05-04 10:47 | 41.01857 | -8.61827 | 6530 ft | 261 kts | 349° |
| 2026-05-04 10:49 | 41.14237 | -8.65384 | 2086 ft | 226 kts | 347° |
| 2026-05-04 10:49 | 41.15711 | -8.65757 | 1849 ft | 205 kts | 346° |
| 2026-05-04 10:50 | 41.17074 | -8.66120 | 1623 ft | 196 kts | 347° |
| 2026-05-04 10:51 | 41.19647 | -8.58034 | 4033 ft | 228 kts | 129° |
| 2026-05-04 10:52 | 41.18427 | -8.56768 | 4040 ft | 223 kts | 158° |
| 2026-05-04 10:52 | 41.16978 | -8.56024 | 4042 ft | 223 kts | 163° |
| 2026-05-04 10:52 | 41.15512 | -8.55366 | 4032 ft | 222 kts | 164° |
| 2026-05-04 10:54 | 41.09524 | -8.60396 | 3028 ft | 182 kts | 266° |
| 2026-05-04 10:54 | 41.09480 | -8.62066 | 3023 ft | 181 kts | 272° |
| 2026-05-04 10:56 | 41.16936 | -8.66063 | 1574 ft | 146 kts | 346° |
| 2026-05-04 10:56 | 41.17905 | -8.66319 | 1313 ft | 141 kts | 346° |
| 2026-05-04 10:56 | 41.18832 | -8.66551 | 1152 ft | 133 kts | 345° |
| 2026-05-04 10:57 | 41.19732 | -8.66804 | 1035 ft | 133 kts | 346° |
| 2026-05-04 10:57 | 41.20656 | -8.67027 | 877 ft | 137 kts | 347° |
| 2026-05-04 10:57 | 41.21568 | -8.67276 | 650 ft | 135 kts | 344° |
| 2026-05-04 10:57 | 41.22494 | -8.67517 | 440 ft | 133 kts | 346° |
| 2026-05-04 10:58 | 41.23370 | -8.67747 | 265 ft | 127 kts | 345° |
| 2026-05-04 10:58 | 41.24148 | -8.67954 | 214 ft | 91 kts | 348° |
| 2026-05-04 10:58 | 41.24612 | -8.68076 | 209 ft | 52 kts | 350° |
| 2026-05-04 10:58 | 41.24917 | -8.68154 | 196 ft | 43 kts | 348° |
| 2026-05-04 10:59 | 41.25131 | -8.68161 | 189 ft | 28 kts | 12° |
| 2026-05-04 10:59 | 41.25268 | -8.68103 | 182 ft | 13 kts | 27° |
| 2026-05-04 10:59 | 41.25286 | -8.68083 | 182 ft | 0 kts | 51° |
| 2026-05-04 10:59 | 41.25287 | -8.68083 | 182 ft | 1 kts | 51° |
| 2026-05-04 11:00 | 41.25294 | -8.68040 | 182 ft | 7 kts | 101° |
| 2026-05-04 11:01 | 41.24692 | -8.67813 | 214 ft | 13 kts | 168° |
| 2026-05-04 11:02 | 41.24606 | -8.67790 | 214 ft | 12 kts | 168° |
| 2026-05-04 11:02 | 41.24528 | -8.67768 | 220 ft | 11 kts | 168° |
| 2026-05-04 11:05 | 41.24255 | -8.67623 | 234 ft | 0 kts | 128° |
| 2026-05-04 11:20 | 41.24255 | -8.67622 | 234 ft | 1 kts | 128° |
| 2026-05-04 11:22 | 41.23898 | -8.67496 | 237 ft | 7 kts | 169° |
| 2026-05-04 11:22 | 41.23886 | -8.67493 | 237 ft | 0 kts | 168° |
| 2026-05-04 11:23 | 41.23885 | -8.67493 | 237 ft | 1 kts | 168° |
| 2026-05-04 11:24 | 41.23636 | -8.67426 | 237 ft | 8 kts | 168° |
| 2026-05-04 11:25 | 41.23579 | -8.67431 | 242 ft | 9 kts | 227° |
| 2026-05-04 11:25 | 41.23570 | -8.67489 | 237 ft | 4 kts | 258° |
| 2026-05-04 11:25 | 41.23568 | -8.67502 | 237 ft | 1 kts | 258° |
| 2026-05-04 11:26 | 41.23568 | -8.67504 | 237 ft | 0 kts | 258° |